Terminal Aerodrome Forecast
Issued by NWS

Home | Current Version | Previous Version | Text Only | Print | Product List | Glossary On
Versions: 1 2 3 4 5 6 7 8 9 10 11 12 13 14 15 16 17 18
029
FTUS43 KGRR 301129
TAFAZO
TAF
KAZO 301129Z 3012/0112 10010G15KT 4SM -RA BR OVC014
      TEMPO 3012/3015 2SM SHRA BR OVC004
     FM301500 08016G26KT 2SM SHRA OVC003
      TEMPO 3015/3017 1SM TSRA BR OVC003CB
     FM302300 08009KT 1SM +TSRA BR OVC003CB
     FM010200 11012G20KT 1 1/2SM SHRA VCTS OVC003CB
     FM010600 14010KT 3SM -SHRA OVC001
     FM010900 18012G22KT P6SM OVC025=

USA.gov is the U.S. government's official web portal to all federal, state and local government web resources and services.